BEL7GZ EBBR-EDDH
Flight info
| Callsign | BEL7GZ |
|---|---|
| Flight time | 0h 51m |
| Altitude | 35000 |
| Route | NIK L191 VICOT N873 ANDIK M105 RIBSO RIBSO7A |
| Aircraft | A320/M-SDE3FGHIRWY/LB1 |
Departure
| Time | 2026-05-06 18:40 |
|---|---|
| Airport | Brussels Airport (EBBR) |
Arrival
| Time | 2026-05-06 19:31 |
|---|---|
| Airport | Hamburg Helmut Schmidt Airport (EDDH) |
| Time | Latitude | Longitude | Altitude | Speed | Heading |
|---|---|---|---|---|---|
| 2026-05-06 18:20 | 50.90312 | 4.48258 | 121 ft | 0 kts | 155° |
| 2026-05-06 18:28 | 50.90320 | 4.48252 | 121 ft | 3 kts | 155° |
| 2026-05-06 18:29 | 50.90341 | 4.48237 | 116 ft | 3 kts | 155° |
| 2026-05-06 18:29 | 50.90363 | 4.48221 | 118 ft | 3 kts | 149° |
| 2026-05-06 18:29 | 50.90378 | 4.48199 | 118 ft | 3 kts | 107° |
| 2026-05-06 18:29 | 50.90382 | 4.48167 | 118 ft | 3 kts | 86° |
| 2026-05-06 18:30 | 50.90374 | 4.48139 | 117 ft | 3 kts | 66° |
| 2026-05-06 18:30 | 50.90371 | 4.48129 | 117 ft | 0 kts | 66° |
| 2026-05-06 18:32 | 50.90372 | 4.48131 | 117 ft | 0 kts | 66° |
| 2026-05-06 18:33 | 50.90374 | 4.48140 | 117 ft | 6 kts | 66° |
| 2026-05-06 18:33 | 50.90422 | 4.48303 | 120 ft | 21 kts | 66° |
| 2026-05-06 18:33 | 50.90484 | 4.48516 | 117 ft | 20 kts | 65° |
| 2026-05-06 18:33 | 50.90582 | 4.48619 | 117 ft | 17 kts | 37° |
| 2026-05-06 18:34 | 50.90642 | 4.48792 | 119 ft | 18 kts | 65° |
| 2026-05-06 18:34 | 50.90699 | 4.48980 | 118 ft | 19 kts | 67° |
| 2026-05-06 18:34 | 50.90650 | 4.49129 | 119 ft | 17 kts | 155° |
| 2026-05-06 18:34 | 50.90554 | 4.49199 | 122 ft | 13 kts | 157° |
| 2026-05-06 18:35 | 50.90468 | 4.49263 | 119 ft | 20 kts | 154° |
| 2026-05-06 18:35 | 50.90330 | 4.49382 | 125 ft | 23 kts | 139° |
| 2026-05-06 18:35 | 50.90193 | 4.49368 | 129 ft | 18 kts | 194° |
| 2026-05-06 18:35 | 50.90039 | 4.49306 | 131 ft | 31 kts | 195° |
| 2026-05-06 18:36 | 50.89834 | 4.49222 | 141 ft | 29 kts | 194° |
| 2026-05-06 18:36 | 50.89656 | 4.49143 | 152 ft | 25 kts | 208° |
| 2026-05-06 18:36 | 50.89511 | 4.49044 | 157 ft | 21 kts | 193° |
| 2026-05-06 18:36 | 50.89395 | 4.49027 | 162 ft | 13 kts | 156° |
| 2026-05-06 18:37 | 50.89333 | 4.49084 | 166 ft | 7 kts | 171° |
| 2026-05-06 18:37 | 50.89315 | 4.49083 | 167 ft | 0 kts | 184° |
| 2026-05-06 18:38 | 50.89275 | 4.49071 | 169 ft | 9 kts | 193° |
| 2026-05-06 18:38 | 50.89237 | 4.49056 | 173 ft | 2 kts | 194° |
| 2026-05-06 18:38 | 50.89178 | 4.49031 | 176 ft | 9 kts | 193° |
| 2026-05-06 18:38 | 50.89143 | 4.49063 | 176 ft | 7 kts | 87° |
| 2026-05-06 18:39 | 50.89222 | 4.49418 | 176 ft | 71 kts | 69° |
| 2026-05-06 18:39 | 50.89469 | 4.50474 | 176 ft | 130 kts | 69° |
| 2026-05-06 18:39 | 50.89824 | 4.52041 | 302 ft | 163 kts | 68° |
| 2026-05-06 18:40 | 50.90699 | 4.55293 | 1646 ft | 160 kts | 59° |
| 2026-05-06 18:40 | 50.91339 | 4.56731 | 2201 ft | 164 kts | 40° |
| 2026-05-06 18:40 | 50.92454 | 4.57352 | 2435 ft | 187 kts | 356° |
| 2026-05-06 18:40 | 50.93698 | 4.56474 | 2683 ft | 212 kts | 321° |
| 2026-05-06 18:41 | 50.94436 | 4.55328 | 2758 ft | 236 kts | 315° |
| 2026-05-06 18:41 | 50.95600 | 4.53309 | 3230 ft | 255 kts | 313° |
| 2026-05-06 18:41 | 50.96775 | 4.51206 | 4179 ft | 255 kts | 313° |
| 2026-05-06 18:41 | 50.97973 | 4.49112 | 5118 ft | 257 kts | 314° |
| 2026-05-06 18:42 | 50.99201 | 4.47015 | 6006 ft | 261 kts | 314° |
| 2026-05-06 18:42 | 51.00453 | 4.44910 | 6841 ft | 264 kts | 314° |
| 2026-05-06 18:42 | 51.01733 | 4.42782 | 7641 ft | 268 kts | 315° |
| 2026-05-06 18:42 | 51.03037 | 4.40634 | 8440 ft | 272 kts | 315° |
| 2026-05-06 18:43 | 51.04362 | 4.38454 | 9247 ft | 277 kts | 315° |
| 2026-05-06 18:43 | 51.05711 | 4.36233 | 10021 ft | 281 kts | 315° |
| 2026-05-06 18:43 | 51.07110 | 4.33928 | 10388 ft | 301 kts | 315° |
| 2026-05-06 18:43 | 51.08619 | 4.31440 | 10614 ft | 323 kts | 314° |
| 2026-05-06 18:44 | 51.10183 | 4.28857 | 11152 ft | 332 kts | 314° |
| 2026-05-06 18:44 | 51.11796 | 4.26190 | 11862 ft | 336 kts | 314° |
| 2026-05-06 18:44 | 51.13422 | 4.23499 | 12591 ft | 339 kts | 313° |
| 2026-05-06 18:44 | 51.15066 | 4.20775 | 13312 ft | 343 kts | 313° |
| 2026-05-06 18:45 | 51.16777 | 4.18104 | 13975 ft | 347 kts | 320° |
| 2026-05-06 18:45 | 51.18719 | 4.15784 | 14593 ft | 351 kts | 323° |
| 2026-05-06 18:45 | 51.20698 | 4.13465 | 15207 ft | 354 kts | 323° |
| 2026-05-06 18:45 | 51.22684 | 4.11128 | 15836 ft | 357 kts | 323° |
| 2026-05-06 18:46 | 51.24698 | 4.08778 | 16456 ft | 361 kts | 326° |
| 2026-05-06 18:46 | 51.26917 | 4.06879 | 17063 ft | 365 kts | 337° |
| 2026-05-06 18:46 | 51.29361 | 4.05723 | 17657 ft | 369 kts | 349° |
| 2026-05-06 18:46 | 51.31933 | 4.05366 | 18268 ft | 373 kts | 358° |
| 2026-05-06 18:47 | 51.34542 | 4.05322 | 18767 ft | 377 kts | 358° |
| 2026-05-06 18:47 | 51.37179 | 4.05277 | 19284 ft | 381 kts | 358° |
| 2026-05-06 18:47 | 51.39841 | 4.05228 | 19791 ft | 384 kts | 358° |
| 2026-05-06 18:47 | 51.42525 | 4.05173 | 20303 ft | 388 kts | 358° |
| 2026-05-06 18:48 | 51.45236 | 4.05134 | 20805 ft | 392 kts | 360° |
| 2026-05-06 18:48 | 51.47962 | 4.05613 | 21301 ft | 397 kts | 10° |
| 2026-05-06 18:48 | 51.50623 | 4.06886 | 21794 ft | 403 kts | 20° |
| 2026-05-06 18:48 | 51.53195 | 4.08764 | 22278 ft | 407 kts | 23° |
| 2026-05-06 18:49 | 51.55775 | 4.10691 | 22756 ft | 411 kts | 23° |
| 2026-05-06 18:49 | 51.58379 | 4.12629 | 23228 ft | 414 kts | 23° |
| 2026-05-06 18:49 | 51.61006 | 4.14575 | 23659 ft | 417 kts | 23° |
| 2026-05-06 18:49 | 51.63654 | 4.16533 | 24048 ft | 420 kts | 23° |
| 2026-05-06 18:50 | 51.66311 | 4.18507 | 24437 ft | 422 kts | 23° |
| 2026-05-06 18:50 | 51.68985 | 4.20500 | 24801 ft | 425 kts | 23° |
| 2026-05-06 18:50 | 51.71669 | 4.22503 | 24916 ft | 425 kts | 24° |
| 2026-05-06 18:50 | 51.74352 | 4.24511 | 24943 ft | 425 kts | 24° |
| 2026-05-06 18:51 | 51.77034 | 4.26519 | 24942 ft | 425 kts | 24° |
| 2026-05-06 18:51 | 51.79718 | 4.28532 | 24946 ft | 425 kts | 24° |
| 2026-05-06 18:51 | 51.82395 | 4.30542 | 24945 ft | 425 kts | 24° |
| 2026-05-06 18:51 | 51.85051 | 4.32540 | 24947 ft | 425 kts | 24° |
| 2026-05-06 18:52 | 51.87767 | 4.34584 | 24947 ft | 426 kts | 24° |
| 2026-05-06 18:52 | 51.90456 | 4.36610 | 24948 ft | 426 kts | 24° |
| 2026-05-06 18:52 | 51.93140 | 4.38636 | 24952 ft | 426 kts | 24° |
| 2026-05-06 18:52 | 51.95797 | 4.40640 | 25020 ft | 428 kts | 24° |
| 2026-05-06 18:53 | 51.98505 | 4.42685 | 25419 ft | 430 kts | 24° |
| 2026-05-06 18:53 | 52.01219 | 4.44743 | 25790 ft | 432 kts | 24° |
| 2026-05-06 18:53 | 52.03952 | 4.46823 | 26148 ft | 434 kts | 24° |
| 2026-05-06 18:53 | 52.06693 | 4.48911 | 26501 ft | 437 kts | 24° |
| 2026-05-06 18:54 | 52.09454 | 4.51016 | 26845 ft | 439 kts | 24° |
| 2026-05-06 18:54 | 52.12228 | 4.53133 | 27182 ft | 441 kts | 24° |
| 2026-05-06 18:54 | 52.15018 | 4.55264 | 27517 ft | 443 kts | 24° |
| 2026-05-06 18:54 | 52.17819 | 4.57404 | 27842 ft | 446 kts | 24° |
| 2026-05-06 18:55 | 52.20630 | 4.59558 | 28166 ft | 448 kts | 24° |
| 2026-05-06 18:55 | 52.23454 | 4.61731 | 28481 ft | 450 kts | 24° |
| 2026-05-06 18:55 | 52.26291 | 4.63915 | 28788 ft | 452 kts | 24° |
| 2026-05-06 18:55 | 52.29142 | 4.66108 | 29078 ft | 454 kts | 24° |
| 2026-05-06 18:56 | 52.32015 | 4.68320 | 29351 ft | 456 kts | 24° |
| 2026-05-06 18:56 | 52.34896 | 4.70539 | 29623 ft | 458 kts | 24° |
| 2026-05-06 18:56 | 52.37792 | 4.72771 | 29898 ft | 460 kts | 24° |
| 2026-05-06 18:56 | 52.40690 | 4.75010 | 30136 ft | 462 kts | 24° |
| 2026-05-06 18:57 | 52.43603 | 4.77264 | 30359 ft | 464 kts | 24° |
| 2026-05-06 18:57 | 52.46527 | 4.79532 | 30580 ft | 465 kts | 24° |
| 2026-05-06 18:57 | 52.49449 | 4.81809 | 30794 ft | 466 kts | 25° |
| 2026-05-06 18:57 | 52.52271 | 4.84453 | 31035 ft | 468 kts | 33° |
| 2026-05-06 18:58 | 52.54827 | 4.87764 | 31336 ft | 468 kts | 42° |
| 2026-05-06 18:58 | 52.57050 | 4.91637 | 31630 ft | 467 kts | 51° |
| 2026-05-06 18:58 | 52.59070 | 4.95839 | 31922 ft | 467 kts | 51° |
| 2026-05-06 18:58 | 52.61075 | 5.00026 | 32212 ft | 466 kts | 51° |
| 2026-05-06 18:59 | 52.63082 | 5.04221 | 32495 ft | 466 kts | 51° |
| 2026-05-06 18:59 | 52.65081 | 5.08402 | 32770 ft | 465 kts | 51° |
| 2026-05-06 18:59 | 52.67083 | 5.12596 | 33059 ft | 464 kts | 51° |
| 2026-05-06 18:59 | 52.69076 | 5.16786 | 33342 ft | 464 kts | 51° |
| 2026-05-06 19:00 | 52.71035 | 5.20921 | 33620 ft | 463 kts | 51° |
| 2026-05-06 19:00 | 52.72946 | 5.25206 | 33900 ft | 463 kts | 57° |
| 2026-05-06 19:00 | 52.74488 | 5.29877 | 34134 ft | 463 kts | 66° |
| 2026-05-06 19:00 | 52.75643 | 5.34844 | 34343 ft | 464 kts | 70° |
| 2026-05-06 19:01 | 52.76708 | 5.39875 | 34540 ft | 464 kts | 71° |
| 2026-05-06 19:01 | 52.77696 | 5.44949 | 34738 ft | 465 kts | 73° |
| 2026-05-06 19:01 | 52.78618 | 5.50065 | 34903 ft | 465 kts | 74° |
| 2026-05-06 19:02 | 52.80370 | 5.60333 | 34950 ft | 462 kts | 75° |
| 2026-05-06 19:02 | 52.82122 | 5.70552 | 34943 ft | 462 kts | 74° |
| 2026-05-06 19:03 | 52.83919 | 5.80732 | 34942 ft | 461 kts | 74° |
| 2026-05-06 19:03 | 52.85724 | 5.90920 | 34941 ft | 461 kts | 74° |
| 2026-05-06 19:04 | 52.87505 | 6.01114 | 34943 ft | 461 kts | 74° |
| 2026-05-06 19:04 | 52.89260 | 6.11257 | 34945 ft | 461 kts | 75° |
| 2026-05-06 19:05 | 52.91018 | 6.21450 | 34946 ft | 461 kts | 75° |
| 2026-05-06 19:05 | 52.92775 | 6.31685 | 34940 ft | 461 kts | 75° |
| 2026-05-06 19:06 | 52.94519 | 6.41906 | 34940 ft | 461 kts | 75° |
| 2026-05-06 19:06 | 52.96250 | 6.52135 | 34947 ft | 461 kts | 75° |
| 2026-05-06 19:07 | 52.97966 | 6.62372 | 34944 ft | 461 kts | 75° |
| 2026-05-06 19:07 | 52.99675 | 6.72631 | 34941 ft | 461 kts | 75° |
| 2026-05-06 19:08 | 53.01388 | 6.82894 | 34937 ft | 461 kts | 75° |
| 2026-05-06 19:08 | 53.03088 | 6.93161 | 34934 ft | 461 kts | 75° |
| 2026-05-06 19:09 | 53.04775 | 7.03437 | 34926 ft | 462 kts | 75° |
| 2026-05-06 19:09 | 53.06464 | 7.13754 | 34906 ft | 463 kts | 76° |
| 2026-05-06 19:10 | 53.08132 | 7.24038 | 34910 ft | 464 kts | 76° |
| 2026-05-06 19:10 | 53.09806 | 7.34402 | 34910 ft | 464 kts | 76° |
| 2026-05-06 19:11 | 53.11470 | 7.44772 | 34771 ft | 465 kts | 76° |
| 2026-05-06 19:11 | 53.12302 | 7.49980 | 34042 ft | 462 kts | 76° |
| 2026-05-06 19:11 | 53.13123 | 7.55128 | 33241 ft | 459 kts | 76° |
| 2026-05-06 19:11 | 53.13938 | 7.60255 | 32422 ft | 455 kts | 76° |
| 2026-05-06 19:12 | 53.14739 | 7.65324 | 31629 ft | 449 kts | 76° |
| 2026-05-06 19:12 | 53.15523 | 7.70316 | 30851 ft | 443 kts | 77° |
| 2026-05-06 19:12 | 53.16298 | 7.75260 | 30099 ft | 437 kts | 77° |
| 2026-05-06 19:12 | 53.17063 | 7.80136 | 29266 ft | 435 kts | 77° |
| 2026-05-06 19:13 | 53.17826 | 7.85004 | 28405 ft | 434 kts | 76° |
| 2026-05-06 19:13 | 53.18589 | 7.89888 | 27598 ft | 436 kts | 76° |
| 2026-05-06 19:13 | 53.19349 | 7.94785 | 26803 ft | 437 kts | 76° |
| 2026-05-06 19:13 | 53.20109 | 7.99701 | 26034 ft | 438 kts | 76° |
| 2026-05-06 19:14 | 53.20867 | 8.04636 | 25275 ft | 439 kts | 76° |
| 2026-05-06 19:14 | 53.21621 | 8.09564 | 24541 ft | 439 kts | 76° |
| 2026-05-06 19:14 | 53.22376 | 8.14497 | 23823 ft | 438 kts | 76° |
| 2026-05-06 19:14 | 53.23131 | 8.19426 | 23044 ft | 438 kts | 76° |
| 2026-05-06 19:15 | 53.23885 | 8.24352 | 22229 ft | 438 kts | 75° |
| 2026-05-06 19:15 | 53.24636 | 8.29276 | 21430 ft | 437 kts | 75° |
| 2026-05-06 19:15 | 53.25375 | 8.34127 | 20662 ft | 436 kts | 75° |
| 2026-05-06 19:15 | 53.26120 | 8.39034 | 19904 ft | 435 kts | 75° |
| 2026-05-06 19:16 | 53.26862 | 8.43929 | 19164 ft | 434 kts | 75° |
| 2026-05-06 19:16 | 53.27598 | 8.48806 | 18438 ft | 431 kts | 76° |
| 2026-05-06 19:16 | 53.28321 | 8.53634 | 17661 ft | 426 kts | 75° |
| 2026-05-06 19:16 | 53.29036 | 8.58427 | 16864 ft | 422 kts | 75° |
| 2026-05-06 19:17 | 53.29743 | 8.63178 | 16077 ft | 419 kts | 75° |
| 2026-05-06 19:17 | 53.30438 | 8.67881 | 15312 ft | 415 kts | 75° |
| 2026-05-06 19:17 | 53.31123 | 8.72524 | 14568 ft | 407 kts | 75° |
| 2026-05-06 19:17 | 53.31795 | 8.77091 | 13833 ft | 398 kts | 75° |
| 2026-05-06 19:18 | 53.32440 | 8.81493 | 13045 ft | 383 kts | 75° |
| 2026-05-06 19:18 | 53.33065 | 8.85745 | 12250 ft | 369 kts | 75° |
| 2026-05-06 19:18 | 53.33667 | 8.89846 | 11479 ft | 357 kts | 75° |
| 2026-05-06 19:18 | 53.34242 | 8.93787 | 11035 ft | 337 kts | 75° |
| 2026-05-06 19:19 | 53.34781 | 8.97493 | 10890 ft | 322 kts | 75° |
| 2026-05-06 19:19 | 53.35303 | 9.01094 | 10883 ft | 316 kts | 75° |
| 2026-05-06 19:19 | 53.35814 | 9.04626 | 10692 ft | 307 kts | 75° |
| 2026-05-06 19:19 | 53.36306 | 9.08035 | 10560 ft | 295 kts | 75° |
| 2026-05-06 19:20 | 53.36777 | 9.11316 | 10441 ft | 285 kts | 75° |
| 2026-05-06 19:20 | 53.37227 | 9.14466 | 10211 ft | 278 kts | 75° |
| 2026-05-06 19:20 | 53.37665 | 9.17521 | 9965 ft | 263 kts | 75° |
| 2026-05-06 19:20 | 53.38085 | 9.20432 | 9723 ft | 254 kts | 75° |
| 2026-05-06 19:21 | 53.38500 | 9.23290 | 9449 ft | 250 kts | 75° |
| 2026-05-06 19:21 | 53.38904 | 9.26104 | 9187 ft | 248 kts | 75° |
| 2026-05-06 19:21 | 53.39301 | 9.28899 | 8918 ft | 246 kts | 75° |
| 2026-05-06 19:21 | 53.39694 | 9.31669 | 8657 ft | 244 kts | 75° |
| 2026-05-06 19:22 | 53.40084 | 9.34425 | 8396 ft | 243 kts | 75° |
| 2026-05-06 19:22 | 53.40477 | 9.37175 | 8133 ft | 241 kts | 75° |
| 2026-05-06 19:22 | 53.40867 | 9.39909 | 7880 ft | 240 kts | 75° |
| 2026-05-06 19:22 | 53.41251 | 9.42627 | 7624 ft | 239 kts | 75° |
| 2026-05-06 19:23 | 53.41630 | 9.45327 | 7370 ft | 238 kts | 76° |
| 2026-05-06 19:23 | 53.42002 | 9.47982 | 7126 ft | 236 kts | 75° |
| 2026-05-06 19:23 | 53.42377 | 9.50657 | 6877 ft | 235 kts | 76° |
| 2026-05-06 19:23 | 53.42751 | 9.53320 | 6630 ft | 234 kts | 76° |
| 2026-05-06 19:24 | 53.43117 | 9.55941 | 6392 ft | 229 kts | 76° |
| 2026-05-06 19:24 | 53.43499 | 9.58521 | 6132 ft | 225 kts | 70° |
| 2026-05-06 19:24 | 53.44197 | 9.60868 | 5662 ft | 226 kts | 54° |
| 2026-05-06 19:24 | 53.45146 | 9.62919 | 5305 ft | 218 kts | 50° |
| 2026-05-06 19:25 | 53.46105 | 9.64826 | 5008 ft | 209 kts | 50° |
| 2026-05-06 19:25 | 53.47022 | 9.66648 | 4726 ft | 199 kts | 50° |
| 2026-05-06 19:25 | 53.47891 | 9.68382 | 4482 ft | 188 kts | 50° |
| 2026-05-06 19:25 | 53.48719 | 9.70036 | 4201 ft | 183 kts | 51° |
| 2026-05-06 19:26 | 53.49257 | 9.71111 | 4028 ft | 179 kts | 51° |
| 2026-05-06 19:26 | 53.50049 | 9.72694 | 3782 ft | 174 kts | 51° |
| 2026-05-06 19:26 | 53.50815 | 9.74228 | 3554 ft | 169 kts | 51° |
| 2026-05-06 19:26 | 53.51561 | 9.75723 | 3330 ft | 165 kts | 51° |
| 2026-05-06 19:27 | 53.52293 | 9.77189 | 3106 ft | 162 kts | 51° |
| 2026-05-06 19:27 | 53.53006 | 9.78619 | 2887 ft | 157 kts | 51° |
| 2026-05-06 19:27 | 53.53698 | 9.80007 | 2670 ft | 151 kts | 52° |
| 2026-05-06 19:27 | 53.54342 | 9.81300 | 2478 ft | 140 kts | 51° |
| 2026-05-06 19:28 | 53.54957 | 9.82535 | 2292 ft | 136 kts | 52° |
| 2026-05-06 19:28 | 53.55559 | 9.83744 | 2099 ft | 134 kts | 52° |
| 2026-05-06 19:28 | 53.56154 | 9.84941 | 1917 ft | 133 kts | 52° |
| 2026-05-06 19:28 | 53.56748 | 9.86136 | 1742 ft | 133 kts | 52° |
| 2026-05-06 19:29 | 53.57337 | 9.87322 | 1554 ft | 132 kts | 51° |
| 2026-05-06 19:29 | 53.57941 | 9.88490 | 1371 ft | 132 kts | 52° |
| 2026-05-06 19:29 | 53.58502 | 9.89689 | 1166 ft | 132 kts | 52° |
| 2026-05-06 19:29 | 53.59095 | 9.90874 | 944 ft | 132 kts | 50° |
| 2026-05-06 19:30 | 53.59688 | 9.92067 | 783 ft | 132 kts | 50° |
| 2026-05-06 19:30 | 53.60274 | 9.93233 | 612 ft | 132 kts | 49° |
| 2026-05-06 19:30 | 53.60857 | 9.94422 | 476 ft | 131 kts | 50° |
| 2026-05-06 19:30 | 53.61445 | 9.95601 | 225 ft | 131 kts | 49° |
| 2026-05-06 19:31 | 53.62026 | 9.96778 | 67 ft | 130 kts | 49° |
| 2026-05-06 19:31 | 53.62556 | 9.97849 | 45 ft | 104 kts | 51° |
| 2026-05-06 19:31 | 53.63116 | 9.98978 | 50 ft | 42 kts | 50° |
| 2026-05-06 19:32 | 53.63232 | 9.99224 | 51 ft | 19 kts | 54° |
| 2026-05-06 19:32 | 53.63290 | 9.99436 | 49 ft | 21 kts | 79° |
| 2026-05-06 19:32 | 53.63281 | 9.99617 | 49 ft | 11 kts | 99° |
| 2026-05-06 19:32 | 53.63278 | 9.99648 | 49 ft | 0 kts | 99° |
| 2026-05-06 19:33 | 53.63278 | 9.99650 | 49 ft | 2 kts | 99° |
| 2026-05-06 19:33 | 53.63286 | 9.99768 | 47 ft | 13 kts | 60° |
| 2026-05-06 19:33 | 53.63347 | 9.99897 | 50 ft | 15 kts | 51° |
| 2026-05-06 19:33 | 53.63413 | 10.00033 | 51 ft | 16 kts | 50° |
| 2026-05-06 19:34 | 53.63389 | 10.00162 | 51 ft | 13 kts | 181° |
| 2026-05-06 19:34 | 53.63299 | 10.00170 | 50 ft | 13 kts | 177° |
| 2026-05-06 19:34 | 53.63218 | 10.00180 | 49 ft | 9 kts | 175° |
| 2026-05-06 19:34 | 53.63182 | 10.00185 | 49 ft | 2 kts | 175° |
| 2026-05-06 19:35 | 53.63140 | 10.00207 | 45 ft | 11 kts | 137° |
| 2026-05-06 19:35 | 53.63116 | 10.00292 | 48 ft | 5 kts | 104° |
| 2026-05-06 19:35 | 53.63113 | 10.00338 | 48 ft | 3 kts | 91° |
| 2026-05-06 19:35 | 53.63114 | 10.00366 | 48 ft | 2 kts | 89° |
| 2026-05-06 19:36 | 53.63114 | 10.00377 | 48 ft | 0 kts | 89° |